sensor_id;sensor_type;location;lat;lon;timestamp;P1;durP1;ratioP1;P2;durP2;ratioP2
83119;SDS011;73001;51.784;4.660;2024-03-23T00:55:33;4.01;;;3.30;;
83119;SDS011;73001;51.784;4.660;2024-03-23T00:57:59;4.13;;;3.35;;
83119;SDS011;73001;51.784;4.660;2024-03-23T01:00:24;4.42;;;3.60;;
83119;SDS011;73001;51.784;4.660;2024-03-23T01:02:50;4.64;;;3.84;;
83119;SDS011;73001;51.784;4.660;2024-03-23T01:05:15;4.55;;;3.79;;
83119;SDS011;73001;51.784;4.660;2024-03-23T01:07:41;5.02;;;4.18;;
83119;SDS011;73001;51.784;4.660;2024-03-23T01:10:07;4.82;;;4.06;;
83119;SDS011;73001;51.784;4.660;2024-03-23T01:12:32;4.58;;;4.00;;
83119;SDS011;73001;51.784;4.660;2024-03-23T01:14:58;4.60;;;4.08;;
83119;SDS011;73001;51.784;4.660;2024-03-23T01:17:23;4.75;;;4.17;;
83119;SDS011;73001;51.784;4.660;2024-03-23T01:19:49;4.95;;;4.40;;
83119;SDS011;73001;51.784;4.660;2024-03-23T01:22:14;5.18;;;4.62;;
83119;SDS011;73001;51.784;4.660;2024-03-23T01:24:40;5.29;;;4.69;;
83119;SDS011;73001;51.784;4.660;2024-03-23T01:27:05;5.68;;;5.00;;
83119;SDS011;73001;51.784;4.660;2024-03-23T01:29:31;6.05;;;5.43;;
83119;SDS011;73001;51.784;4.660;2024-03-23T01:31:56;5.57;;;5.19;;
83119;SDS011;73001;51.784;4.660;2024-03-23T01:34:22;6.37;;;5.88;;
83119;SDS011;73001;51.784;4.660;2024-03-23T01:36:47;6.62;;;6.10;;
83119;SDS011;73001;51.784;4.660;2024-03-23T01:39:13;6.78;;;6.38;;
83119;SDS011;73001;51.784;4.660;2024-03-23T01:41:39;6.43;;;6.17;;
83119;SDS011;73001;51.784;4.660;2024-03-23T01:44:07;6.61;;;6.38;;
83119;SDS011;73001;51.784;4.660;2024-03-23T01:46:33;6.55;;;6.35;;
83119;SDS011;73001;51.784;4.660;2024-03-23T01:49:00;6.43;;;6.27;;
83119;SDS011;73001;51.784;4.660;2024-03-23T01:51:26;6.33;;;6.12;;
83119;SDS011;73001;51.784;4.660;2024-03-23T01:53:53;6.50;;;6.26;;
83119;SDS011;73001;51.784;4.660;2024-03-23T01:56:20;6.36;;;6.14;;
83119;SDS011;73001;51.784;4.660;2024-03-23T01:58:45;6.98;;;6.65;;
83119;SDS011;73001;51.784;4.660;2024-03-23T02:01:11;6.69;;;6.39;;
83119;SDS011;73001;51.784;4.660;2024-03-23T02:03:37;6.54;;;6.24;;
83119;SDS011;73001;51.784;4.660;2024-03-23T02:06:02;6.29;;;6.09;;
83119;SDS011;73001;51.784;4.660;2024-03-23T02:08:28;6.35;;;6.16;;
83119;SDS011;73001;51.784;4.660;2024-03-23T02:10:56;6.36;;;6.21;;
83119;SDS011;73001;51.784;4.660;2024-03-23T02:13:21;6.55;;;6.33;;
83119;SDS011;73001;51.784;4.660;2024-03-23T02:15:47;6.65;;;6.49;;
83119;SDS011;73001;51.784;4.660;2024-03-23T02:18:13;6.93;;;6.75;;
83119;SDS011;73001;51.784;4.660;2024-03-23T02:20:38;6.34;;;6.12;;
83119;SDS011;73001;51.784;4.660;2024-03-23T02:23:04;6.33;;;6.00;;
83119;SDS011;73001;51.784;4.660;2024-03-23T02:25:33;6.80;;;6.49;;
83119;SDS011;73001;51.784;4.660;2024-03-23T02:27:59;6.43;;;6.23;;
83119;SDS011;73001;51.784;4.660;2024-03-23T02:30:25;6.28;;;6.10;;
83119;SDS011;73001;51.784;4.660;2024-03-23T02:32:51;5.89;;;5.56;;
83119;SDS011;73001;51.784;4.660;2024-03-23T02:35:16;6.43;;;6.11;;
83119;SDS011;73001;51.784;4.660;2024-03-23T02:37:42;5.84;;;5.54;;
83119;SDS011;73001;51.784;4.660;2024-03-23T02:40:08;5.68;;;5.48;;
83119;SDS011;73001;51.784;4.660;2024-03-23T02:42:34;5.79;;;5.53;;
83119;SDS011;73001;51.784;4.660;2024-03-23T02:44:59;5.72;;;5.48;;
83119;SDS011;73001;51.784;4.660;2024-03-23T02:47:25;5.30;;;5.12;;
83119;SDS011;73001;51.784;4.660;2024-03-23T02:49:50;5.66;;;5.43;;
83119;SDS011;73001;51.784;4.660;2024-03-23T02:52:16;5.63;;;5.37;;
83119;SDS011;73001;51.784;4.660;2024-03-23T02:54:41;5.53;;;5.35;;
83119;SDS011;73001;51.784;4.660;2024-03-23T02:57:10;5.88;;;5.72;;
83119;SDS011;73001;51.784;4.660;2024-03-23T02:59:35;6.10;;;5.84;;
83119;SDS011;73001;51.784;4.660;2024-03-23T03:02:01;5.77;;;5.51;;
83119;SDS011;73001;51.784;4.660;2024-03-23T03:04:27;5.31;;;5.09;;
83119;SDS011;73001;51.784;4.660;2024-03-23T03:06:52;5.45;;;5.19;;
83119;SDS011;73001;51.784;4.660;2024-03-23T03:09:17;5.44;;;5.16;;
83119;SDS011;73001;51.784;4.660;2024-03-23T03:11:43;4.84;;;4.51;;
83119;SDS011;73001;51.784;4.660;2024-03-23T03:14:08;4.34;;;4.04;;
83119;SDS011;73001;51.784;4.660;2024-03-23T03:16:34;4.05;;;3.82;;
83119;SDS011;73001;51.784;4.660;2024-03-23T03:18:59;4.44;;;4.09;;
83119;SDS011;73001;51.784;4.660;2024-03-23T03:21:26;4.09;;;3.69;;
83119;SDS011;73001;51.784;4.660;2024-03-23T03:23:52;4.08;;;3.63;;
83119;SDS011;73001;51.784;4.660;2024-03-23T03:26:17;4.43;;;3.84;;
83119;SDS011;73001;51.784;4.660;2024-03-23T03:28:43;4.28;;;3.71;;
83119;SDS011;73001;51.784;4.660;2024-03-23T03:31:13;4.01;;;3.42;;
83119;SDS011;73001;51.784;4.660;2024-03-23T03:33:39;4.06;;;3.42;;
83119;SDS011;73001;51.784;4.660;2024-03-23T03:36:05;4.05;;;3.39;;
83119;SDS011;73001;51.784;4.660;2024-03-23T03:38:30;4.05;;;3.31;;
83119;SDS011;73001;51.784;4.660;2024-03-23T03:40:56;4.01;;;3.26;;
83119;SDS011;73001;51.784;4.660;2024-03-23T03:43:22;3.76;;;3.09;;
83119;SDS011;73001;51.784;4.660;2024-03-23T03:45:51;3.92;;;3.29;;
83119;SDS011;73001;51.784;4.660;2024-03-23T03:48:17;4.29;;;3.42;;
83119;SDS011;73001;51.784;4.660;2024-03-23T03:50:43;4.92;;;3.82;;
83119;SDS011;73001;51.784;4.660;2024-03-23T03:53:08;4.75;;;3.68;;
83119;SDS011;73001;51.784;4.660;2024-03-23T03:55:34;4.87;;;3.71;;
83119;SDS011;73001;51.784;4.660;2024-03-23T03:57:59;4.74;;;3.56;;
83119;SDS011;73001;51.784;4.660;2024-03-23T04:00:24;5.33;;;3.91;;
83119;SDS011;73001;51.784;4.660;2024-03-23T04:02:50;4.97;;;3.67;;
83119;SDS011;73001;51.784;4.660;2024-03-23T04:05:15;4.65;;;3.50;;
83119;SDS011;73001;51.784;4.660;2024-03-23T04:07:41;4.36;;;3.29;;
83119;SDS011;73001;51.784;4.660;2024-03-23T04:10:07;3.89;;;2.95;;
83119;SDS011;73001;51.784;4.660;2024-03-23T04:12:33;4.15;;;3.16;;
83119;SDS011;73001;51.784;4.660;2024-03-23T04:14:59;4.14;;;3.20;;
83119;SDS011;73001;51.784;4.660;2024-03-23T04:17:25;4.03;;;3.11;;
83119;SDS011;73001;51.784;4.660;2024-03-23T04:19:54;4.36;;;3.47;;
83119;SDS011;73001;51.784;4.660;2024-03-23T04:22:21;4.48;;;3.54;;
83119;SDS011;73001;51.784;4.660;2024-03-23T04:24:46;4.12;;;3.21;;
83119;SDS011;73001;51.784;4.660;2024-03-23T04:27:12;3.76;;;2.95;;
83119;SDS011;73001;51.784;4.660;2024-03-23T04:29:37;4.06;;;3.17;;
83119;SDS011;73001;51.784;4.660;2024-03-23T04:32:03;4.08;;;3.10;;
83119;SDS011;73001;51.784;4.660;2024-03-23T04:34:29;4.66;;;3.45;;
83119;SDS011;73001;51.784;4.660;2024-03-23T04:36:55;4.40;;;3.23;;
83119;SDS011;73001;51.784;4.660;2024-03-23T04:39:20;4.05;;;2.98;;
83119;SDS011;73001;51.784;4.660;2024-03-23T04:41:45;4.37;;;3.21;;
83119;SDS011;73001;51.784;4.660;2024-03-23T04:44:11;4.23;;;3.16;;
83119;SDS011;73001;51.784;4.660;2024-03-23T04:46:36;3.64;;;2.76;;
83119;SDS011;73001;51.784;4.660;2024-03-23T04:49:02;4.30;;;3.26;;
83119;SDS011;73001;51.784;4.660;2024-03-23T04:51:34;4.00;;;3.05;;
83119;SDS011;73001;51.784;4.660;2024-03-23T04:54:02;3.63;;;2.81;;
83119;SDS011;73001;51.784;4.660;2024-03-23T04:56:28;3.96;;;3.05;;
83119;SDS011;73001;51.784;4.660;2024-03-23T04:58:53;4.06;;;3.08;;
83119;SDS011;73001;51.784;4.660;2024-03-23T05:01:19;4.13;;;3.07;;
83119;SDS011;73001;51.784;4.660;2024-03-23T05:03:44;4.85;;;3.65;;
83119;SDS011;73001;51.784;4.660;2024-03-23T05:06:10;3.91;;;2.96;;
83119;SDS011;73001;51.784;4.660;2024-03-23T05:08:35;4.32;;;3.25;;
83119;SDS011;73001;51.784;4.660;2024-03-23T05:11:01;4.36;;;3.21;;
83119;SDS011;73001;51.784;4.660;2024-03-23T05:13:26;4.95;;;3.65;;
83119;SDS011;73001;51.784;4.660;2024-03-23T05:15:55;3.99;;;3.04;;
83119;SDS011;73001;51.784;4.660;2024-03-23T05:18:21;4.33;;;3.28;;
83119;SDS011;73001;51.784;4.660;2024-03-23T05:20:46;3.88;;;2.95;;
83119;SDS011;73001;51.784;4.660;2024-03-23T05:23:12;4.71;;;3.56;;
83119;SDS011;73001;51.784;4.660;2024-03-23T05:25:37;5.28;;;4.00;;
83119;SDS011;73001;51.784;4.660;2024-03-23T05:28:03;4.51;;;3.41;;
83119;SDS011;73001;51.784;4.660;2024-03-23T05:30:29;4.50;;;3.52;;
83119;SDS011;73001;51.784;4.660;2024-03-23T05:32:54;4.41;;;3.44;;
83119;SDS011;73001;51.784;4.660;2024-03-23T05:35:20;4.77;;;3.67;;
83119;SDS011;73001;51.784;4.660;2024-03-23T05:37:45;4.63;;;3.56;;
83119;SDS011;73001;51.784;4.660;2024-03-23T05:40:11;4.68;;;3.61;;
83119;SDS011;73001;51.784;4.660;2024-03-23T05:42:38;4.73;;;3.64;;
83119;SDS011;73001;51.784;4.660;2024-03-23T05:45:03;4.82;;;3.72;;
83119;SDS011;73001;51.784;4.660;2024-03-23T05:47:31;5.17;;;3.95;;
83119;SDS011;73001;51.784;4.660;2024-03-23T05:49:57;4.83;;;3.64;;
83119;SDS011;73001;51.784;4.660;2024-03-23T05:52:22;5.30;;;4.01;;
83119;SDS011;73001;51.784;4.660;2024-03-23T05:54:50;4.84;;;3.74;;
83119;SDS011;73001;51.784;4.660;2024-03-23T05:57:16;5.06;;;4.00;;
83119;SDS011;73001;51.784;4.660;2024-03-23T05:59:41;5.44;;;4.17;;
83119;SDS011;73001;51.784;4.660;2024-03-23T06:02:07;5.68;;;4.29;;
83119;SDS011;73001;51.784;4.660;2024-03-23T06:04:35;6.43;;;5.00;;
83119;SDS011;73001;51.784;4.660;2024-03-23T06:07:00;5.25;;;4.33;;
83119;SDS011;73001;51.784;4.660;2024-03-23T06:09:26;5.30;;;4.34;;
83119;SDS011;73001;51.784;4.660;2024-03-23T06:11:51;5.55;;;4.47;;
83119;SDS011;73001;51.784;4.660;2024-03-23T06:14:17;5.25;;;4.34;;
83119;SDS011;73001;51.784;4.660;2024-03-23T06:16:42;4.74;;;4.04;;
83119;SDS011;73001;51.784;4.660;2024-03-23T06:19:08;5.01;;;4.34;;
83119;SDS011;73001;51.784;4.660;2024-03-23T06:21:33;5.03;;;4.30;;
83119;SDS011;73001;51.784;4.660;2024-03-23T06:23:59;5.67;;;4.63;;
83119;SDS011;73001;51.784;4.660;2024-03-23T06:26:24;5.40;;;4.40;;
83119;SDS011;73001;51.784;4.660;2024-03-23T06:28:50;5.55;;;4.55;;
83119;SDS011;73001;51.784;4.660;2024-03-23T06:31:15;5.28;;;4.36;;
83119;SDS011;73001;51.784;4.660;2024-03-23T06:33:41;4.97;;;4.16;;
83119;SDS011;73001;51.784;4.660;2024-03-23T06:36:08;4.83;;;4.00;;
83119;SDS011;73001;51.784;4.660;2024-03-23T06:38:36;4.68;;;3.92;;
83119;SDS011;73001;51.784;4.660;2024-03-23T06:41:03;4.50;;;3.86;;
83119;SDS011;73001;51.784;4.660;2024-03-23T06:43:29;4.76;;;4.00;;
83119;SDS011;73001;51.784;4.660;2024-03-23T06:45:55;4.98;;;4.15;;
83119;SDS011;73001;51.784;4.660;2024-03-23T06:48:20;5.27;;;4.44;;
83119;SDS011;73001;51.784;4.660;2024-03-23T06:50:46;4.60;;;3.86;;
83119;SDS011;73001;51.784;4.660;2024-03-23T06:53:13;5.06;;;4.09;;
83119;SDS011;73001;51.784;4.660;2024-03-23T06:55:39;5.09;;;4.03;;
83119;SDS011;73001;51.784;4.660;2024-03-23T06:58:04;5.58;;;4.30;;
83119;SDS011;73001;51.784;4.660;2024-03-23T07:00:30;5.91;;;4.55;;
83119;SDS011;73001;51.784;4.660;2024-03-23T07:02:57;4.62;;;3.54;;
83119;SDS011;73001;51.784;4.660;2024-03-23T07:05:22;5.17;;;3.85;;
83119;SDS011;73001;51.784;4.660;2024-03-23T07:07:48;5.16;;;3.84;;
83119;SDS011;73001;51.784;4.660;2024-03-23T07:10:13;4.62;;;3.41;;
83119;SDS011;73001;51.784;4.660;2024-03-23T07:12:39;4.66;;;3.42;;
83119;SDS011;73001;51.784;4.660;2024-03-23T07:15:04;5.09;;;3.70;;
83119;SDS011;73001;51.784;4.660;2024-03-23T07:17:30;5.00;;;3.67;;
83119;SDS011;73001;51.784;4.660;2024-03-23T07:19:57;5.60;;;4.06;;
83119;SDS011;73001;51.784;4.660;2024-03-23T07:22:23;4.91;;;3.60;;
83119;SDS011;73001;51.784;4.660;2024-03-23T07:24:49;5.09;;;3.71;;
83119;SDS011;73001;51.784;4.660;2024-03-23T07:27:14;4.92;;;3.60;;
83119;SDS011;73001;51.784;4.660;2024-03-23T07:29:40;5.10;;;3.64;;
83119;SDS011;73001;51.784;4.660;2024-03-23T07:32:05;5.78;;;4.14;;
83119;SDS011;73001;51.784;4.660;2024-03-23T07:34:31;5.35;;;3.88;;
83119;SDS011;73001;51.784;4.660;2024-03-23T07:36:56;4.66;;;3.52;;
83119;SDS011;73001;51.784;4.660;2024-03-23T07:39:22;5.16;;;3.86;;
83119;SDS011;73001;51.784;4.660;2024-03-23T07:41:47;5.42;;;3.96;;
83119;SDS011;73001;51.784;4.660;2024-03-23T07:44:12;5.34;;;3.84;;
83119;SDS011;73001;51.784;4.660;2024-03-23T07:46:38;5.50;;;3.90;;
83119;SDS011;73001;51.784;4.660;2024-03-23T07:49:06;5.40;;;3.82;;
83119;SDS011;73001;51.784;4.660;2024-03-23T07:51:32;5.51;;;3.88;;
83119;SDS011;73001;51.784;4.660;2024-03-23T07:53:58;6.05;;;4.33;;
83119;SDS011;73001;51.784;4.660;2024-03-23T07:56:24;5.78;;;4.16;;
83119;SDS011;73001;51.784;4.660;2024-03-23T07:58:49;5.71;;;4.11;;
83119;SDS011;73001;51.784;4.660;2024-03-23T08:01:15;5.61;;;4.04;;
83119;SDS011;73001;51.784;4.660;2024-03-23T08:03:42;5.05;;;3.62;;
83119;SDS011;73001;51.784;4.660;2024-03-23T08:06:12;4.89;;;3.48;;
83119;SDS011;73001;51.784;4.660;2024-03-23T08:08:39;5.15;;;3.67;;
83119;SDS011;73001;51.784;4.660;2024-03-23T08:11:08;5.67;;;3.97;;
83119;SDS011;73001;51.784;4.660;2024-03-23T08:13:34;5.31;;;3.67;;
83119;SDS011;73001;51.784;4.660;2024-03-23T08:16:01;5.73;;;3.97;;
83119;SDS011;73001;51.784;4.660;2024-03-23T08:18:28;5.43;;;3.78;;
83119;SDS011;73001;51.784;4.660;2024-03-23T08:21:01;5.24;;;3.65;;
83119;SDS011;73001;51.784;4.660;2024-03-23T08:23:28;5.49;;;3.78;;
83119;SDS011;73001;51.784;4.660;2024-03-23T08:25:57;4.97;;;3.45;;
83119;SDS011;73001;51.784;4.660;2024-03-23T08:28:24;5.01;;;3.45;;
83119;SDS011;73001;51.784;4.660;2024-03-23T08:30:50;5.26;;;3.60;;
83119;SDS011;73001;51.784;4.660;2024-03-23T08:33:16;5.75;;;3.93;;
83119;SDS011;73001;51.784;4.660;2024-03-23T08:35:42;5.54;;;3.82;;
83119;SDS011;73001;51.784;4.660;2024-03-23T08:38:07;5.21;;;3.69;;
83119;SDS011;73001;51.784;4.660;2024-03-23T08:40:33;5.44;;;3.95;;
83119;SDS011;73001;51.784;4.660;2024-03-23T08:42:58;4.50;;;3.40;;
83119;SDS011;73001;51.784;4.660;2024-03-23T08:45:24;3.85;;;3.01;;
83119;SDS011;73001;51.784;4.660;2024-03-23T08:47:51;3.53;;;2.78;;
83119;SDS011;73001;51.784;4.660;2024-03-23T08:50:17;4.19;;;3.21;;
83119;SDS011;73001;51.784;4.660;2024-03-23T08:52:42;4.65;;;3.48;;
83119;SDS011;73001;51.784;4.660;2024-03-23T08:55:08;4.34;;;3.25;;
83119;SDS011;73001;51.784;4.660;2024-03-23T08:57:35;4.20;;;3.09;;
83119;SDS011;73001;51.784;4.660;2024-03-23T09:00:01;4.69;;;3.48;;
83119;SDS011;73001;51.784;4.660;2024-03-23T09:02:27;4.17;;;3.15;;
83119;SDS011;73001;51.784;4.660;2024-03-23T09:04:53;4.05;;;3.03;;
83119;SDS011;73001;51.784;4.660;2024-03-23T09:07:18;4.49;;;3.31;;
83119;SDS011;73001;51.784;4.660;2024-03-23T09:09:43;4.45;;;3.25;;
83119;SDS011;73001;51.784;4.660;2024-03-23T09:12:09;4.45;;;3.24;;
83119;SDS011;73001;51.784;4.660;2024-03-23T09:14:34;4.63;;;3.35;;
83119;SDS011;73001;51.784;4.660;2024-03-23T09:17:00;4.30;;;3.16;;
83119;SDS011;73001;51.784;4.660;2024-03-23T09:19:28;4.85;;;3.55;;
83119;SDS011;73001;51.784;4.660;2024-03-23T09:21:54;4.91;;;3.57;;
83119;SDS011;73001;51.784;4.660;2024-03-23T09:24:20;5.10;;;3.75;;
83119;SDS011;73001;51.784;4.660;2024-03-23T09:26:46;4.70;;;3.53;;
83119;SDS011;73001;51.784;4.660;2024-03-23T09:29:12;4.86;;;3.68;;
83119;SDS011;73001;51.784;4.660;2024-03-23T09:31:37;4.60;;;3.53;;
83119;SDS011;73001;51.784;4.660;2024-03-23T09:34:03;4.08;;;3.10;;
83119;SDS011;73001;51.784;4.660;2024-03-23T09:36:29;4.01;;;2.98;;
83119;SDS011;73001;51.784;4.660;2024-03-23T09:38:54;4.12;;;3.01;;
83119;SDS011;73001;51.784;4.660;2024-03-23T09:41:20;4.39;;;3.15;;
83119;SDS011;73001;51.784;4.660;2024-03-23T09:43:45;4.58;;;3.32;;
83119;SDS011;73001;51.784;4.660;2024-03-23T09:46:13;5.61;;;4.12;;
83119;SDS011;73001;51.784;4.660;2024-03-23T09:48:39;5.57;;;4.38;;
83119;SDS011;73001;51.784;4.660;2024-03-23T09:51:05;9.01;;;7.26;;
83119;SDS011;73001;51.784;4.660;2024-03-23T09:53:34;10.11;;;7.88;;
83119;SDS011;73001;51.784;4.660;2024-03-23T09:56:00;3.71;;;2.86;;
83119;SDS011;73001;51.784;4.660;2024-03-23T09:58:25;3.83;;;2.91;;
83119;SDS011;73001;51.784;4.660;2024-03-23T10:00:50;4.51;;;3.32;;
83119;SDS011;73001;51.784;4.660;2024-03-23T10:03:16;4.66;;;3.43;;
83119;SDS011;73001;51.784;4.660;2024-03-23T10:05:41;4.58;;;3.32;;
83119;SDS011;73001;51.784;4.660;2024-03-23T10:10:38;4.84;;;3.49;;
83119;SDS011;73001;51.784;4.660;2024-03-23T10:13:04;4.50;;;3.27;;
83119;SDS011;73001;51.784;4.660;2024-03-23T10:15:29;4.14;;;3.01;;
83119;SDS011;73001;51.784;4.660;2024-03-23T10:17:55;4.32;;;3.19;;
83119;SDS011;73001;51.784;4.660;2024-03-23T10:20:21;4.36;;;3.19;;
83119;SDS011;73001;51.784;4.660;2024-03-23T10:22:48;4.71;;;3.38;;
83119;SDS011;73001;51.784;4.660;2024-03-23T10:25:15;4.66;;;3.34;;
83119;SDS011;73001;51.784;4.660;2024-03-23T10:27:40;4.56;;;3.27;;
83119;SDS011;73001;51.784;4.660;2024-03-23T10:30:14;4.81;;;3.39;;
83119;SDS011;73001;51.784;4.660;2024-03-23T10:32:40;4.85;;;3.48;;
83119;SDS011;73001;51.784;4.660;2024-03-23T10:37:42;5.17;;;3.93;;
83119;SDS011;73001;51.784;4.660;2024-03-23T10:40:09;5.07;;;3.77;;
83119;SDS011;73001;51.784;4.660;2024-03-23T10:42:36;5.62;;;4.28;;
83119;SDS011;73001;51.784;4.660;2024-03-23T10:45:03;6.20;;;5.00;;
83119;SDS011;73001;51.784;4.660;2024-03-23T10:47:30;4.38;;;3.68;;
83119;SDS011;73001;51.784;4.660;2024-03-23T10:49:57;3.29;;;2.73;;
83119;SDS011;73001;51.784;4.660;2024-03-23T10:52:22;3.70;;;2.89;;
83119;SDS011;73001;51.784;4.660;2024-03-23T10:54:49;4.24;;;3.25;;
83119;SDS011;73001;51.784;4.660;2024-03-23T10:57:21;4.44;;;3.27;;
83119;SDS011;73001;51.784;4.660;2024-03-23T10:59:52;4.24;;;3.04;;
83119;SDS011;73001;51.784;4.660;2024-03-23T11:02:19;4.89;;;3.47;;
83119;SDS011;73001;51.784;4.660;2024-03-23T11:04:46;4.28;;;3.06;;
83119;SDS011;73001;51.784;4.660;2024-03-23T11:07:33;4.93;;;3.47;;
83119;SDS011;73001;51.784;4.660;2024-03-23T11:10:01;5.11;;;3.59;;
83119;SDS011;73001;51.784;4.660;2024-03-23T11:12:28;5.04;;;3.47;;
83119;SDS011;73001;51.784;4.660;2024-03-23T11:17:26;4.40;;;3.00;;
83119;SDS011;73001;51.784;4.660;2024-03-23T11:19:53;4.65;;;3.16;;
83119;SDS011;73001;51.784;4.660;2024-03-23T11:25:21;4.11;;;2.88;;
83119;SDS011;73001;51.784;4.660;2024-03-23T11:27:49;4.87;;;3.34;;
83119;SDS011;73001;51.784;4.660;2024-03-23T11:30:16;4.98;;;3.42;;
83119;SDS011;73001;51.784;4.660;2024-03-23T11:32:44;5.03;;;3.50;;
83119;SDS011;73001;51.784;4.660;2024-03-23T11:35:11;4.72;;;3.38;;
83119;SDS011;73001;51.784;4.660;2024-03-23T11:40:34;3.98;;;2.82;;
83119;SDS011;73001;51.784;4.660;2024-03-23T11:43:14;5.74;;;4.11;;
83119;SDS011;73001;51.784;4.660;2024-03-23T11:45:45;4.63;;;3.48;;
83119;SDS011;73001;51.784;4.660;2024-03-23T11:48:13;4.53;;;3.47;;
83119;SDS011;73001;51.784;4.660;2024-03-23T11:50:40;4.24;;;3.14;;
83119;SDS011;73001;51.784;4.660;2024-03-23T11:55:38;4.49;;;3.17;;
83119;SDS011;73001;51.784;4.660;2024-03-23T11:58:15;3.78;;;2.59;;
83119;SDS011;73001;51.784;4.660;2024-03-23T12:00:42;4.45;;;2.97;;
83119;SDS011;73001;51.784;4.660;2024-03-23T12:03:08;4.74;;;3.21;;
83119;SDS011;73001;51.784;4.660;2024-03-23T12:05:35;4.98;;;3.38;;
83119;SDS011;73001;51.784;4.660;2024-03-23T12:10:52;4.03;;;2.78;;
83119;SDS011;73001;51.784;4.660;2024-03-23T12:13:21;4.54;;;3.11;;
83119;SDS011;73001;51.784;4.660;2024-03-23T12:15:49;4.90;;;3.34;;
83119;SDS011;73001;51.784;4.660;2024-03-23T12:18:16;5.01;;;3.43;;
83119;SDS011;73001;51.784;4.660;2024-03-23T12:20:42;4.83;;;3.26;;
83119;SDS011;73001;51.784;4.660;2024-03-23T12:23:08;5.14;;;3.48;;
83119;SDS011;73001;51.784;4.660;2024-03-23T12:25:35;4.67;;;3.14;;
83119;SDS011;73001;51.784;4.660;2024-03-23T12:28:01;5.03;;;3.36;;
83119;SDS011;73001;51.784;4.660;2024-03-23T12:30:27;5.96;;;3.97;;
83119;SDS011;73001;51.784;4.660;2024-03-23T12:32:53;4.48;;;3.00;;
83119;SDS011;73001;51.784;4.660;2024-03-23T12:35:18;4.97;;;3.31;;
83119;SDS011;73001;51.784;4.660;2024-03-23T12:37:44;4.17;;;2.74;;
83119;SDS011;73001;51.784;4.660;2024-03-23T12:40:09;4.74;;;3.12;;
83119;SDS011;73001;51.784;4.660;2024-03-23T12:42:35;5.62;;;3.80;;
83119;SDS011;73001;51.784;4.660;2024-03-23T12:45:00;5.56;;;3.90;;
83119;SDS011;73001;51.784;4.660;2024-03-23T12:47:26;4.35;;;3.16;;
83119;SDS011;73001;51.784;4.660;2024-03-23T12:49:52;3.89;;;2.80;;
83119;SDS011;73001;51.784;4.660;2024-03-23T12:52:17;4.67;;;3.23;;
83119;SDS011;73001;51.784;4.660;2024-03-23T12:54:43;3.74;;;2.57;;
83119;SDS011;73001;51.784;4.660;2024-03-23T12:57:08;4.67;;;3.17;;
83119;SDS011;73001;51.784;4.660;2024-03-23T12:59:33;4.65;;;3.14;;
83119;SDS011;73001;51.784;4.660;2024-03-23T13:02:00;4.47;;;3.04;;
83119;SDS011;73001;51.784;4.660;2024-03-23T13:04:26;4.96;;;3.31;;
83119;SDS011;73001;51.784;4.660;2024-03-23T13:06:51;4.85;;;3.26;;
83119;SDS011;73001;51.784;4.660;2024-03-23T13:09:17;5.67;;;3.86;;
83119;SDS011;73001;51.784;4.660;2024-03-23T13:11:42;4.95;;;3.42;;
83119;SDS011;73001;51.784;4.660;2024-03-23T13:14:08;5.61;;;3.91;;
83119;SDS011;73001;51.784;4.660;2024-03-23T13:16:33;5.30;;;3.82;;
83119;SDS011;73001;51.784;4.660;2024-03-23T13:18:59;3.92;;;2.82;;
83119;SDS011;73001;51.784;4.660;2024-03-23T13:21:26;3.93;;;2.80;;
83119;SDS011;73001;51.784;4.660;2024-03-23T13:23:51;4.61;;;3.26;;
83119;SDS011;73001;51.784;4.660;2024-03-23T13:26:17;4.27;;;3.01;;
83119;SDS011;73001;51.784;4.660;2024-03-23T13:28:42;4.33;;;3.06;;
83119;SDS011;73001;51.784;4.660;2024-03-23T13:31:08;4.31;;;3.03;;
83119;SDS011;73001;51.784;4.660;2024-03-23T13:33:34;4.34;;;3.01;;
83119;SDS011;73001;51.784;4.660;2024-03-23T13:35:59;3.98;;;2.75;;
83119;SDS011;73001;51.784;4.660;2024-03-23T13:38:25;4.09;;;2.83;;
83119;SDS011;73001;51.784;4.660;2024-03-23T13:43:23;4.11;;;2.78;;
83119;SDS011;73001;51.784;4.660;2024-03-23T13:45:56;4.61;;;3.10;;
83119;SDS011;73001;51.784;4.660;2024-03-23T13:48:24;4.30;;;2.89;;
83119;SDS011;73001;51.784;4.660;2024-03-23T13:50:56;4.37;;;2.95;;
83119;SDS011;73001;51.784;4.660;2024-03-23T13:53:25;4.27;;;2.86;;
83119;SDS011;73001;51.784;4.660;2024-03-23T13:55:51;4.20;;;2.82;;
83119;SDS011;73001;51.784;4.660;2024-03-23T13:58:17;4.42;;;2.94;;
83119;SDS011;73001;51.784;4.660;2024-03-23T14:00:43;4.12;;;2.74;;
83119;SDS011;73001;51.784;4.660;2024-03-23T14:03:08;3.94;;;2.56;;
83119;SDS011;73001;51.784;4.660;2024-03-23T14:05:34;4.16;;;2.71;;
83119;SDS011;73001;51.784;4.660;2024-03-23T14:08:00;3.76;;;2.48;;
83119;SDS011;73001;51.784;4.660;2024-03-23T14:10:25;3.90;;;2.60;;
83119;SDS011;73001;51.784;4.660;2024-03-23T14:12:52;3.30;;;2.22;;
83119;SDS011;73001;51.784;4.660;2024-03-23T14:15:18;3.41;;;2.30;;
83119;SDS011;73001;51.784;4.660;2024-03-23T14:17:43;2.68;;;1.81;;
83119;SDS011;73001;51.784;4.660;2024-03-23T14:20:09;1.48;;;1.00;;
83119;SDS011;73001;51.784;4.660;2024-03-23T14:22:36;1.85;;;1.25;;
83119;SDS011;73001;51.784;4.660;2024-03-23T14:25:02;3.04;;;2.04;;
83119;SDS011;73001;51.784;4.660;2024-03-23T14:27:28;2.17;;;1.48;;
83119;SDS011;73001;51.784;4.660;2024-03-23T14:29:53;1.69;;;1.15;;
83119;SDS011;73001;51.784;4.660;2024-03-23T14:32:19;1.41;;;0.98;;
83119;SDS011;73001;51.784;4.660;2024-03-23T14:34:45;1.16;;;0.81;;
83119;SDS011;73001;51.784;4.660;2024-03-23T14:37:11;1.54;;;1.09;;
83119;SDS011;73001;51.784;4.660;2024-03-23T14:39:37;1.45;;;1.04;;
83119;SDS011;73001;51.784;4.660;2024-03-23T14:42:06;2.00;;;1.45;;
83119;SDS011;73001;51.784;4.660;2024-03-23T14:44:34;1.71;;;1.24;;
83119;SDS011;73001;51.784;4.660;2024-03-23T14:46:59;1.69;;;1.23;;
83119;SDS011;73001;51.784;4.660;2024-03-23T14:49:25;2.16;;;1.58;;
83119;SDS011;73001;51.784;4.660;2024-03-23T14:51:51;1.83;;;1.34;;
83119;SDS011;73001;51.784;4.660;2024-03-23T14:54:16;1.92;;;1.40;;
83119;SDS011;73001;51.784;4.660;2024-03-23T14:56:42;2.66;;;1.92;;
83119;SDS011;73001;51.784;4.660;2024-03-23T14:59:07;4.82;;;3.53;;
83119;SDS011;73001;51.784;4.660;2024-03-23T15:01:34;6.21;;;4.83;;
83119;SDS011;73001;51.784;4.660;2024-03-23T15:04:00;2.76;;;2.24;;
83119;SDS011;73001;51.784;4.660;2024-03-23T15:06:25;1.93;;;1.54;;
83119;SDS011;73001;51.784;4.660;2024-03-23T15:08:51;1.37;;;1.09;;
83119;SDS011;73001;51.784;4.660;2024-03-23T15:11:16;1.32;;;1.03;;
83119;SDS011;73001;51.784;4.660;2024-03-23T15:13:44;1.24;;;0.96;;
83119;SDS011;73001;51.784;4.660;2024-03-23T15:16:09;1.09;;;0.83;;
83119;SDS011;73001;51.784;4.660;2024-03-23T15:18:35;0.97;;;0.73;;
83119;SDS011;73001;51.784;4.660;2024-03-23T15:21:01;0.93;;;0.71;;
83119;SDS011;73001;51.784;4.660;2024-03-23T15:23:30;1.13;;;0.88;;
83119;SDS011;73001;51.784;4.660;2024-03-23T15:25:59;1.31;;;1.00;;
83119;SDS011;73001;51.784;4.660;2024-03-23T15:28:26;1.20;;;0.92;;
83119;SDS011;73001;51.784;4.660;2024-03-23T15:31:03;1.10;;;0.83;;
83119;SDS011;73001;51.784;4.660;2024-03-23T15:33:33;1.33;;;0.99;;
83119;SDS011;73001;51.784;4.660;2024-03-23T15:35:59;1.13;;;0.84;;
83119;SDS011;73001;51.784;4.660;2024-03-23T15:38:28;1.07;;;0.80;;
83119;SDS011;73001;51.784;4.660;2024-03-23T15:40:56;0.98;;;0.73;;
83119;SDS011;73001;51.784;4.660;2024-03-23T15:43:21;1.19;;;0.87;;
83119;SDS011;73001;51.784;4.660;2024-03-23T15:45:53;1.33;;;0.97;;
83119;SDS011;73001;51.784;4.660;2024-03-23T15:48:26;2.13;;;1.56;;
83119;SDS011;73001;51.784;4.660;2024-03-23T15:50:53;3.05;;;2.31;;
83119;SDS011;73001;51.784;4.660;2024-03-23T15:53:20;5.32;;;4.27;;
83119;SDS011;73001;51.784;4.660;2024-03-23T15:55:53;2.59;;;2.18;;
83119;SDS011;73001;51.784;4.660;2024-03-23T15:58:19;1.91;;;1.60;;